Página principal
METAR-TAF:

METAR-TAF

Aeroportos :

Tozeur, Tunísia

latitude: 33-55N, longitude: 008-06E, altura: 87 m

Observação actual do tempo

O boletim foi feito há 1 hora e 13 minutos, às 12:00 UTC
Vento 3 kt com direcção variável
Temperatura 33°C
Humidade 36%
Pressão 1018 hPa
Visibilidade 10 km ou mais
sem nuvens abaixo de 1500 metros e sem cumulonimbus

METAR: DTTZ 241200Z VRB03KT CAVOK 33/16 Q1018 NOSIG

Hora: 14:13 (13:13 UTC)

Previsão

O boletim foi feito há 2 horas e 13 minutos, às 11:00 UTC
Previsão válida de 24 às 12 UTC a 25 às 12 UTC
Vento 4 kt de es-sudeste
Visibilidade 10 km ou mais
sem nuvens abaixo de 1500 metros e sem cumulonimbus
Tornando-se
de 24 às 13 UTC a 24 às 15 UTC
Vento 8 kt de sudoeste
Visibilidade 10 km ou mais
Poucas nuvensa uma altura de 3000 ft
Tornando-se
de 25 às 02 UTC a 25 às 04 UTC
Vento 10 kt de este

TAF: DTTZ 241100Z 2412/2512 12004KT CAVOK BECMG 2413/2415 22008KT 9999 FEW030 BECMG 2502/2504 08010KT

Observações e previsões do tempo de mais de 4000 aeroportos (mensagens METAR e TAF).

As estações disponíveis são os pontos amarelos e vermelhos sobre o mapa.

Mova o rato sobre o mapa para ver o nome da estação.

Depois clique no ponto para visualizar as observações e previsões meteorológicas.

Para alterar o mapa : clique nos botões verdes com uma cruz preta para aumentar o zoom; no botão verde com uma pitada de zoom; ou nas setas verdes para mapas adjacentes.


METAR-TAF: